createdAt,value
2017-07-14T00:00:14.492Z,18.58
2017-07-14T00:01:14.479Z,18.55
2017-07-14T00:02:14.363Z,18.58
2017-07-14T00:03:14.712Z,18.62
2017-07-14T00:04:14.733Z,18.59
2017-07-14T00:05:14.430Z,18.52
2017-07-14T00:06:14.454Z,18.56
2017-07-14T00:07:14.569Z,18.5
2017-07-14T00:08:14.827Z,18.45
2017-07-14T00:09:14.283Z,18.45
2017-07-14T00:10:14.875Z,18.49
2017-07-14T00:11:14.886Z,18.49
2017-07-14T00:12:14.266Z,18.5
2017-07-14T00:13:14.723Z,18.47
2017-07-14T00:14:14.635Z,18.4
2017-07-14T00:15:15.071Z,18.4
2017-07-14T00:16:15.027Z,18.4
2017-07-14T00:17:14.699Z,18.37
2017-07-14T00:18:14.721Z,18.35
2017-07-14T00:19:14.746Z,18.34
2017-07-14T00:20:14.769Z,18.41
2017-07-14T00:21:14.805Z,18.31
2017-07-14T00:22:14.487Z,18.29
2017-07-14T00:23:14.939Z,18.37
2017-07-14T00:24:14.919Z,18.34
2017-07-14T00:25:14.877Z,18.33
2017-07-14T00:26:15.223Z,18.22
2017-07-14T00:27:14.922Z,18.31
2017-07-14T00:28:14.619Z,18.25
2017-07-14T00:29:15.290Z,18.31
2017-07-14T00:30:14.666Z,18.25
2017-07-14T00:31:15.334Z,18.22
2017-07-14T00:32:15.036Z,18.19
2017-07-14T00:33:15.056Z,18.11
2017-07-14T00:34:15.398Z,18.16
2017-07-14T00:35:15.096Z,18.15
2017-07-14T00:36:14.798Z,18.19
2017-07-14T00:37:15.140Z,18.16
2017-07-14T00:38:15.492Z,18.15
2017-07-14T00:39:15.520Z,18.22
2017-07-14T00:40:15.535Z,18.15
2017-07-14T00:41:15.230Z,18.13
2017-07-14T00:42:15.251Z,18.05
2017-07-14T00:43:14.952Z,18.11
2017-07-14T00:44:15.298Z,18.1
2017-07-14T00:45:15.639Z,18.07
2017-07-14T00:46:15.676Z,18.07
2017-07-14T00:47:15.372Z,18.01
2017-07-14T00:48:15.710Z,18.1
2017-07-14T00:49:15.733Z,18
2017-07-14T00:50:15.428Z,18.04
2017-07-14T00:51:15.454Z,18.13
2017-07-14T00:52:15.794Z,18
2017-07-14T00:53:15.498Z,18.05
2017-07-14T00:54:15.839Z,18.03
2017-07-14T00:55:15.538Z,18.03
2017-07-14T00:56:15.888Z,18.05
2017-07-14T00:57:15.261Z,17.94
2017-07-14T00:58:15.603Z,17.97
2017-07-14T00:59:15.940Z,17.98
2017-07-14T01:00:15.966Z,17.97
2017-07-14T01:01:15.672Z,17.9
2017-07-14T01:02:15.362Z,17.97
2017-07-14T01:03:16.023Z,17.89
2017-07-14T01:04:16.045Z,17.89
2017-07-14T01:05:16.065Z,17.95
2017-07-14T01:06:16.091Z,17.86
2017-07-14T01:07:16.111Z,17.86
2017-07-14T01:08:16.135Z,17.86
2017-07-14T01:09:15.512Z,17.9
2017-07-14T01:10:15.856Z,17.85
2017-07-14T01:11:16.199Z,17.78
2017-07-14T01:12:15.901Z,17.8
2017-07-14T01:13:16.240Z,17.78
2017-07-14T01:14:15.943Z,17.79
2017-07-14T01:15:15.967Z,17.74
2017-07-14T01:16:15.987Z,17.78
2017-07-14T01:17:16.336Z,17.78
2017-07-14T01:18:16.356Z,17.71
2017-07-14T01:19:16.378Z,17.68
2017-07-14T01:20:16.396Z,17.71
2017-07-14T01:21:16.418Z,17.7
2017-07-14T01:22:16.119Z,17.71
2017-07-14T01:23:16.136Z,17.79
2017-07-14T01:24:16.491Z,17.68
2017-07-14T01:25:16.511Z,17.76
2017-07-14T01:26:15.959Z,17.67
2017-07-14T01:27:16.224Z,17.68
2017-07-14T01:28:16.248Z,17.72
2017-07-14T01:29:16.272Z,17.7
2017-07-14T01:30:16.612Z,17.59
2017-07-14T01:31:16.640Z,17.64
2017-07-14T01:32:16.336Z,17.64
2017-07-14T01:33:16.358Z,17.64
2017-07-14T01:34:16.382Z,17.64
2017-07-14T01:35:16.075Z,17.56
2017-07-14T01:36:16.422Z,17.54
2017-07-14T01:37:16.779Z,17.56
2017-07-14T01:38:16.469Z,17.56
2017-07-14T01:39:16.811Z,17.52
2017-07-14T01:40:16.188Z,17.6
2017-07-14T01:41:16.878Z,17.56
2017-07-14T01:42:16.552Z,17.54
2017-07-14T01:43:16.572Z,17.49
2017-07-14T01:44:16.596Z,17.49
2017-07-14T01:45:16.293Z,17.51
2017-07-14T01:46:16.961Z,17.56
2017-07-14T01:47:16.659Z,17.54
2017-07-14T01:48:16.679Z,17.44
2017-07-14T01:49:16.379Z,17.51
2017-07-14T01:50:16.726Z,17.49
2017-07-14T01:51:17.069Z,17.39
2017-07-14T01:52:17.092Z,17.31
2017-07-14T01:53:17.213Z,17.36
2017-07-14T01:54:16.811Z,17.41
2017-07-14T01:55:16.830Z,17.38
2017-07-14T01:56:16.856Z,17.33
2017-07-14T01:57:17.197Z,17.36
2017-07-14T01:58:16.571Z,17.44
2017-07-14T01:59:17.252Z,17.36
2017-07-14T02:00:17.389Z,17.42
2017-07-14T02:01:17.103Z,17.31
2017-07-14T02:02:17.424Z,17.34
2017-07-14T02:03:17.384Z,17.31
2017-07-14T02:04:17.069Z,17.39
2017-07-14T02:05:16.861Z,17.29
2017-07-14T02:06:17.390Z,17.24
2017-07-14T02:07:17.098Z,17.26
2017-07-14T02:08:17.437Z,17.23
2017-07-14T02:09:17.574Z,17.22
2017-07-14T02:10:17.271Z,17.24
2017-07-14T02:11:17.174Z,17.24
2017-07-14T02:12:17.321Z,17.2
2017-07-14T02:13:17.355Z,17.2
2017-07-14T02:14:17.563Z,17.19
2017-07-14T02:15:17.712Z,17.2
2017-07-14T02:16:17.407Z,17.15
2017-07-14T02:17:17.727Z,17.11
2017-07-14T02:18:17.121Z,17.22
2017-07-14T02:19:17.472Z,17.16
2017-07-14T02:20:17.866Z,17.12
2017-07-14T02:21:17.710Z,17.06
2017-07-14T02:22:17.787Z,17.06
2017-07-14T02:23:17.788Z,17.08
2017-07-14T02:24:17.449Z,17.14
2017-07-14T02:25:17.920Z,17.11
2017-07-14T02:26:17.927Z,17.14
2017-07-14T02:27:17.853Z,17.04
2017-07-14T02:28:17.993Z,17.04
2017-07-14T02:29:17.883Z,17.08
2017-07-14T02:30:17.578Z,17.01
2017-07-14T02:31:17.386Z,17.04
2017-07-14T02:32:17.619Z,17.04
2017-07-14T02:33:17.642Z,16.96
2017-07-14T02:34:17.988Z,17.09
2017-07-14T02:35:17.367Z,16.94
2017-07-14T02:36:18.030Z,17.02
2017-07-14T02:37:17.726Z,16.96
2017-07-14T02:38:18.074Z,16.97
2017-07-14T02:39:18.096Z,16.99
2017-07-14T02:40:17.794Z,16.9
2017-07-14T02:41:18.135Z,17.04
2017-07-14T02:42:18.158Z,17.02
2017-07-14T02:43:18.179Z,17.04
2017-07-14T02:44:17.876Z,16.89
2017-07-14T02:45:17.574Z,17.02
2017-07-14T02:46:18.245Z,17.01
2017-07-14T02:47:18.266Z,16.91
2017-07-14T02:48:17.960Z,16.99
2017-07-14T02:49:17.656Z,16.86
2017-07-14T02:50:18.327Z,16.97
2017-07-14T02:51:18.028Z,16.93
2017-07-14T02:52:18.046Z,16.91
2017-07-14T02:53:18.071Z,16.87
2017-07-14T02:54:18.088Z,16.91
2017-07-14T02:55:17.807Z,16.97
2017-07-14T02:56:18.453Z,16.9
2017-07-14T02:57:18.478Z,16.9
2017-07-14T02:58:18.171Z,16.81
2017-07-14T02:59:18.517Z,16.91
2017-07-14T03:00:18.213Z,16.84
2017-07-14T03:01:18.234Z,16.86
2017-07-14T03:02:18.581Z,16.81
2017-07-14T03:03:18.594Z,16.87
2017-07-14T03:04:19.049Z,16.79
2017-07-14T03:05:17.995Z,16.79
2017-07-14T03:06:18.336Z,16.86
2017-07-14T03:07:18.704Z,16.83
2017-07-14T03:08:18.935Z,16.84
2017-07-14T03:09:18.868Z,16.89
2017-07-14T03:10:18.428Z,16.75
2017-07-14T03:11:18.936Z,16.79
2017-07-14T03:12:18.467Z,16.79
2017-07-14T03:13:18.947Z,16.81
2017-07-14T03:14:18.513Z,16.76
2017-07-14T03:15:18.321Z,16.76
2017-07-14T03:16:18.936Z,16.83
2017-07-14T03:17:18.946Z,16.83
2017-07-14T03:18:18.597Z,16.75
2017-07-14T03:19:18.611Z,16.83
2017-07-14T03:20:18.640Z,16.79
2017-07-14T03:21:18.654Z,16.71
2017-07-14T03:22:18.671Z,16.76
2017-07-14T03:23:18.372Z,16.79
2017-07-14T03:24:18.392Z,16.79
2017-07-14T03:25:19.060Z,16.79
2017-07-14T03:26:18.762Z,16.75
2017-07-14T03:27:19.232Z,16.74
2017-07-14T03:28:18.920Z,16.75
2017-07-14T03:29:18.951Z,16.61
2017-07-14T03:30:19.264Z,16.65
2017-07-14T03:31:18.989Z,16.6
2017-07-14T03:32:19.298Z,16.61
2017-07-14T03:33:18.700Z,16.71
2017-07-14T03:34:18.602Z,16.61
2017-07-14T03:35:19.108Z,16.69
2017-07-14T03:36:19.335Z,16.68
2017-07-14T03:37:19.332Z,16.6
2017-07-14T03:38:19.334Z,16.66
2017-07-14T03:39:19.029Z,16.65
2017-07-14T03:40:19.049Z,16.64
2017-07-14T03:41:19.079Z,16.66
2017-07-14T03:42:19.418Z,16.65
2017-07-14T03:43:19.435Z,16.65
2017-07-14T03:44:18.810Z,16.65
2017-07-14T03:45:19.470Z,16.66
2017-07-14T03:46:19.175Z,16.66
2017-07-14T03:47:19.531Z,16.68
2017-07-14T03:48:19.223Z,16.64
2017-07-14T03:49:18.915Z,16.64
2017-07-14T03:50:19.581Z,16.64
2017-07-14T03:51:19.600Z,16.64
2017-07-14T03:52:19.389Z,16.66
2017-07-14T03:53:19.715Z,16.64
2017-07-14T03:54:19.427Z,16.66
2017-07-14T03:55:19.804Z,16.61
2017-07-14T03:56:19.759Z,16.65
2017-07-14T03:57:19.764Z,16.56
2017-07-14T03:58:19.841Z,16.58
2017-07-14T03:59:19.766Z,16.6
2017-07-14T04:00:19.791Z,16.58
2017-07-14T04:01:19.485Z,16.6
2017-07-14T04:02:19.832Z,16.54
2017-07-14T04:03:19.850Z,16.56
2017-07-14T04:04:19.856Z,16.6
2017-07-14T04:05:19.891Z,16.6
2017-07-14T04:06:19.912Z,16.64
2017-07-14T04:07:19.936Z,16.64
2017-07-14T04:08:19.642Z,16.54
2017-07-14T04:09:19.442Z,16.54
2017-07-14T04:10:19.752Z,16.58
2017-07-14T04:11:20.018Z,16.61
2017-07-14T04:12:19.776Z,16.53
2017-07-14T04:13:20.057Z,16.57
2017-07-14T04:14:20.262Z,16.56
2017-07-14T04:15:20.230Z,16.56
2017-07-14T04:16:20.239Z,16.56
2017-07-14T04:17:20.140Z,16.58
2017-07-14T04:18:20.164Z,16.56
2017-07-14T04:19:19.542Z,16.56
2017-07-14T04:20:20.210Z,16.61
2017-07-14T04:21:20.359Z,16.65
2017-07-14T04:22:19.923Z,16.58
2017-07-14T04:23:19.942Z,16.6
2017-07-14T04:24:19.639Z,16.66
2017-07-14T04:25:19.986Z,16.6
2017-07-14T04:26:20.002Z,16.6
2017-07-14T04:27:20.132Z,16.65
2017-07-14T04:28:20.043Z,16.69
2017-07-14T04:29:19.742Z,16.64
2017-07-14T04:30:19.765Z,16.69
2017-07-14T04:31:20.111Z,16.69
2017-07-14T04:32:20.127Z,16.65
2017-07-14T04:33:20.149Z,16.79
2017-07-14T04:34:20.492Z,16.75
2017-07-14T04:35:20.188Z,16.72
2017-07-14T04:36:20.571Z,16.72
2017-07-14T04:37:19.907Z,16.76
2017-07-14T04:38:20.701Z,16.76
2017-07-14T04:39:20.729Z,16.79
2017-07-14T04:40:20.386Z,16.78
2017-07-14T04:41:20.311Z,16.78
2017-07-14T04:42:20.660Z,16.81
2017-07-14T04:43:20.685Z,16.84
2017-07-14T04:44:20.702Z,16.84
2017-07-14T04:45:20.408Z,16.79
2017-07-14T04:46:20.742Z,16.74
2017-07-14T04:47:20.564Z,16.93
2017-07-14T04:48:20.474Z,16.91
2017-07-14T04:49:20.926Z,16.93
2017-07-14T04:50:20.499Z,16.87
2017-07-14T04:51:20.518Z,16.9
2017-07-14T04:52:21.029Z,17.01
2017-07-14T04:53:20.567Z,16.96
2017-07-14T04:54:20.919Z,17.04
2017-07-14T04:55:20.621Z,17.06
2017-07-14T04:56:20.950Z,16.91
2017-07-14T04:57:20.322Z,17.01
2017-07-14T04:58:20.665Z,17.11
2017-07-14T04:59:20.861Z,17.06
2017-07-14T05:00:21.028Z,17.06
2017-07-14T05:01:21.056Z,17.05
2017-07-14T05:02:20.748Z,17.02
2017-07-14T05:03:20.771Z,17.11
2017-07-14T05:04:20.796Z,17.09
2017-07-14T05:05:20.888Z,17.11
2017-07-14T05:06:20.835Z,17.08
2017-07-14T05:07:20.535Z,17.15
2017-07-14T05:08:21.197Z,17.11
2017-07-14T05:09:20.895Z,17.14
2017-07-14T05:10:21.038Z,17.08
2017-07-14T05:11:20.615Z,17.19
2017-07-14T05:12:21.375Z,17.16
2017-07-14T05:13:20.983Z,17.23
2017-07-14T05:14:21.003Z,17.23
2017-07-14T05:15:21.023Z,17.23
2017-07-14T05:16:21.362Z,17.26
2017-07-14T05:17:21.275Z,17.34
2017-07-14T05:18:21.590Z,17.34
2017-07-14T05:19:21.233Z,17.34
2017-07-14T05:20:21.124Z,17.39
2017-07-14T05:21:21.147Z,17.41
2017-07-14T05:22:20.844Z,17.34
2017-07-14T05:23:21.182Z,17.36
2017-07-14T05:24:21.532Z,17.48
2017-07-14T05:25:21.557Z,17.56
2017-07-14T05:26:21.013Z,17.51
2017-07-14T05:27:21.002Z,17.54
2017-07-14T05:28:21.291Z,17.48
2017-07-14T05:29:21.426Z,17.6
2017-07-14T05:30:21.660Z,17.63
2017-07-14T05:31:21.357Z,17.63
2017-07-14T05:32:21.375Z,17.57
2017-07-14T05:33:21.718Z,17.65
2017-07-14T05:34:21.761Z,17.67
2017-07-14T05:35:21.116Z,17.64
2017-07-14T05:36:21.783Z,17.63
2017-07-14T05:37:21.805Z,17.68
2017-07-14T05:38:21.382Z,17.68
2017-07-14T05:39:21.843Z,17.72
2017-07-14T05:40:21.544Z,17.79
2017-07-14T05:41:21.688Z,17.71
2017-07-14T05:42:21.586Z,17.68
2017-07-14T05:43:21.981Z,17.67
2017-07-14T05:44:21.757Z,17.76
2017-07-14T05:45:21.991Z,17.8
2017-07-14T05:46:21.681Z,17.76
2017-07-14T05:47:21.368Z,17.79
2017-07-14T05:48:22.044Z,17.86
2017-07-14T05:49:21.744Z,17.85
2017-07-14T05:50:21.850Z,17.82
2017-07-14T05:51:21.796Z,17.89
2017-07-14T05:52:21.895Z,17.89
2017-07-14T05:53:21.502Z,17.9
2017-07-14T05:54:22.168Z,17.9
2017-07-14T05:55:22.181Z,18.01
2017-07-14T05:56:21.886Z,18.01
2017-07-14T05:57:21.904Z,17.98
2017-07-14T05:58:21.927Z,18.04
2017-07-14T05:59:22.272Z,18
2017-07-14T06:00:21.970Z,18.07
2017-07-14T06:01:22.097Z,18.01
2017-07-14T06:02:22.332Z,18.08
2017-07-14T06:03:21.840Z,18.11
2017-07-14T06:04:21.813Z,18.05
2017-07-14T06:05:22.398Z,18.08
2017-07-14T06:06:22.545Z,18.01
2017-07-14T06:07:22.250Z,18.11
2017-07-14T06:08:22.585Z,18.11
2017-07-14T06:09:22.197Z,18.19
2017-07-14T06:10:22.503Z,18.22
2017-07-14T06:11:22.651Z,18.18
2017-07-14T06:12:22.362Z,18.2
2017-07-14T06:13:22.565Z,18.33
2017-07-14T06:14:22.267Z,18.23
2017-07-14T06:15:22.297Z,18.33
2017-07-14T06:16:22.636Z,18.37
2017-07-14T06:17:22.337Z,18.33
2017-07-14T06:18:22.026Z,18.38
2017-07-14T06:19:22.614Z,18.4
2017-07-14T06:20:22.928Z,18.37
2017-07-14T06:21:22.737Z,18.44
2017-07-14T06:22:22.433Z,18.45
2017-07-14T06:23:22.459Z,18.47
2017-07-14T06:24:22.499Z,18.52
2017-07-14T06:25:22.561Z,18.5
2017-07-14T06:26:22.854Z,18.56
2017-07-14T06:27:22.870Z,18.62
2017-07-14T06:28:22.896Z,18.58
2017-07-14T06:29:22.911Z,18.63
2017-07-14T06:30:22.931Z,18.68
2017-07-14T06:31:22.306Z,18.7
2017-07-14T06:32:22.656Z,18.71
2017-07-14T06:33:23.000Z,18.7
2017-07-14T06:34:22.696Z,18.75
2017-07-14T06:35:23.040Z,18.77
2017-07-14T06:36:22.740Z,18.73
2017-07-14T06:37:23.286Z,18.86
2017-07-14T06:38:23.106Z,18.83
2017-07-14T06:39:23.130Z,18.88
2017-07-14T06:40:23.151Z,18.9
2017-07-14T06:41:23.174Z,18.9
2017-07-14T06:42:22.546Z,18.96
2017-07-14T06:43:23.212Z,18.9
2017-07-14T06:44:22.914Z,19.02
2017-07-14T06:45:23.257Z,18.95
2017-07-14T06:46:22.958Z,18.93
2017-07-14T06:47:23.300Z,19.04
2017-07-14T06:48:23.002Z,19.04
2017-07-14T06:49:23.030Z,19.11
2017-07-14T06:50:23.062Z,19.22
2017-07-14T06:51:23.391Z,19.16
2017-07-14T06:52:23.350Z,19.27
2017-07-14T06:53:23.435Z,19.19
2017-07-14T06:54:23.471Z,19.21
2017-07-14T06:55:23.159Z,19.33
2017-07-14T06:56:22.850Z,19.36
2017-07-14T06:57:23.045Z,19.44
2017-07-14T06:58:23.539Z,19.39
2017-07-14T06:59:23.239Z,19.47
2017-07-14T07:00:23.353Z,19.4
2017-07-14T07:01:23.397Z,19.4
2017-07-14T07:02:23.303Z,19.56
2017-07-14T07:03:23.330Z,19.52
2017-07-14T07:04:23.354Z,19.52
2017-07-14T07:05:23.733Z,19.63
2017-07-14T07:06:23.721Z,19.63
2017-07-14T07:07:23.742Z,19.58
2017-07-14T07:08:23.436Z,19.55
2017-07-14T07:09:23.466Z,19.58
2017-07-14T07:10:23.480Z,19.58
2017-07-14T07:11:23.511Z,19.7
2017-07-14T07:12:23.853Z,19.84
2017-07-14T07:13:23.548Z,19.67
2017-07-14T07:14:23.898Z,19.73
2017-07-14T07:15:23.928Z,19.86
2017-07-14T07:16:23.612Z,19.89
2017-07-14T07:17:23.960Z,19.94
2017-07-14T07:18:23.657Z,19.96
2017-07-14T07:19:23.691Z,20.06
2017-07-14T07:20:23.704Z,20.03
2017-07-14T07:21:24.078Z,20.11
2017-07-14T07:22:23.424Z,20.11
2017-07-14T07:23:23.446Z,20.11
2017-07-14T07:24:24.115Z,20.26
2017-07-14T07:25:23.812Z,20.29
2017-07-14T07:26:23.836Z,20.25
2017-07-14T07:27:24.182Z,20.25
2017-07-14T07:28:24.203Z,20.31
2017-07-14T07:29:24.266Z,20.47
2017-07-14T07:30:23.924Z,20.5
2017-07-14T07:31:24.276Z,20.44
2017-07-14T07:32:23.970Z,20.44
2017-07-14T07:33:24.313Z,20.55
2017-07-14T07:34:24.336Z,20.59
2017-07-14T07:35:23.715Z,20.6
2017-07-14T07:36:24.384Z,20.58
2017-07-14T07:37:24.085Z,20.6
2017-07-14T07:38:23.782Z,20.67
2017-07-14T07:39:24.455Z,20.72
2017-07-14T07:40:24.610Z,20.74
2017-07-14T07:41:24.263Z,20.82
2017-07-14T07:42:24.641Z,20.87
2017-07-14T07:43:24.320Z,20.87
2017-07-14T07:44:24.734Z,20.88
2017-07-14T07:45:24.692Z,20.85
2017-07-14T07:46:24.709Z,20.9
2017-07-14T07:47:24.509Z,20.9
2017-07-14T07:48:24.789Z,20.92
2017-07-14T07:49:24.677Z,21.03
2017-07-14T07:50:24.378Z,20.97
2017-07-14T07:51:24.720Z,21.02
2017-07-14T07:52:24.101Z,21.12
2017-07-14T07:53:24.774Z,21.14
2017-07-14T07:54:24.171Z,21.15
2017-07-14T07:55:24.494Z,21.18
2017-07-14T07:56:24.515Z,21.22
2017-07-14T07:57:24.537Z,21.24
2017-07-14T07:58:24.673Z,21.27
2017-07-14T07:59:24.977Z,21.27
2017-07-14T08:00:25.007Z,21.33
2017-07-14T08:01:25.004Z,21.42
2017-07-14T08:02:24.481Z,21.4
2017-07-14T08:03:24.684Z,21.42
2017-07-14T08:04:24.806Z,21.54
2017-07-14T08:05:24.721Z,21.67
2017-07-14T08:06:24.545Z,21.58
2017-07-14T08:07:24.447Z,21.75
2017-07-14T08:08:24.996Z,21.72
2017-07-14T08:09:24.818Z,21.77
2017-07-14T08:10:24.838Z,21.92
2017-07-14T08:11:24.860Z,22
2017-07-14T08:12:25.291Z,21.98
2017-07-14T08:13:24.909Z,22.02
2017-07-14T08:14:25.254Z,22.14
2017-07-14T08:15:25.280Z,22.2
2017-07-14T08:16:24.980Z,22.22
2017-07-14T08:17:25.006Z,22.26
2017-07-14T08:18:25.024Z,22.29
2017-07-14T08:19:25.379Z,22.35
2017-07-14T08:20:25.073Z,22.32
2017-07-14T08:21:25.098Z,22.39
2017-07-14T08:22:24.795Z,22.43
2017-07-14T08:23:24.821Z,22.47
2017-07-14T08:24:25.167Z,22.44
2017-07-14T08:25:25.189Z,22.47
2017-07-14T08:26:25.533Z,22.5
2017-07-14T08:27:25.562Z,22.6
2017-07-14T08:28:25.257Z,22.51
2017-07-14T08:29:25.611Z,22.43
2017-07-14T08:30:24.984Z,22.62
2017-07-14T08:31:25.014Z,22.73
2017-07-14T08:32:25.678Z,22.66
2017-07-14T08:33:25.464Z,22.75
2017-07-14T08:34:25.725Z,22.76
2017-07-14T08:35:25.772Z,22.75
2017-07-14T08:36:25.445Z,22.81
2017-07-14T08:37:25.803Z,22.9
2017-07-14T08:38:25.501Z,22.98
2017-07-14T08:39:25.529Z,22.99
2017-07-14T08:40:25.546Z,23.06
2017-07-14T08:41:25.896Z,23.1
2017-07-14T08:42:26.042Z,23.2
2017-07-14T08:43:25.719Z,23.23
2017-07-14T08:44:25.978Z,23.25
2017-07-14T08:45:25.987Z,23.31
2017-07-14T08:46:26.016Z,23.27
2017-07-14T08:47:26.037Z,23.39
2017-07-14T08:48:26.060Z,23.47
2017-07-14T08:49:25.761Z,23.54
2017-07-14T08:50:26.115Z,23.46
2017-07-14T08:51:25.684Z,23.62
2017-07-14T08:52:25.587Z,23.65
2017-07-14T08:53:25.858Z,23.69
2017-07-14T08:54:26.211Z,23.74
2017-07-14T08:55:25.907Z,23.73
2017-07-14T08:56:25.608Z,23.76
2017-07-14T08:57:26.279Z,23.8
2017-07-14T08:58:26.304Z,23.77
2017-07-14T08:59:26.006Z,23.76
2017-07-14T09:00:26.366Z,23.76
2017-07-14T09:01:26.379Z,23.76
2017-07-14T09:02:26.082Z,23.78
2017-07-14T09:03:26.102Z,23.88
2017-07-14T09:04:26.449Z,23.87
2017-07-14T09:05:26.529Z,23.92
2017-07-14T09:06:26.174Z,23.92
2017-07-14T09:07:26.525Z,23.98
2017-07-14T09:08:26.550Z,24.06
2017-07-14T09:09:26.249Z,24.06
2017-07-14T09:10:26.270Z,24.18
2017-07-14T09:11:26.627Z,24.29
2017-07-14T09:12:26.003Z,24.32
2017-07-14T09:13:26.347Z,24.39
2017-07-14T09:14:26.048Z,24.57
2017-07-14T09:15:26.399Z,24.55
2017-07-14T09:16:26.423Z,24.68
2017-07-14T09:17:26.121Z,24.63
2017-07-14T09:18:26.473Z,24.74
2017-07-14T09:19:26.826Z,24.77
2017-07-14T09:20:26.198Z,24.89
2017-07-14T09:21:26.543Z,24.88
2017-07-14T09:22:26.568Z,25.01
2017-07-14T09:23:26.274Z,24.96
2017-07-14T09:24:26.939Z,25.07
2017-07-14T09:25:26.647Z,25.17
2017-07-14T09:26:27.107Z,25.35
2017-07-14T09:27:27.019Z,25.43
2017-07-14T09:28:26.827Z,25.46
2017-07-14T09:29:27.079Z,25.5
2017-07-14T09:30:26.770Z,25.66
2017-07-14T09:31:26.796Z,25.72
2017-07-14T09:32:27.144Z,25.84
2017-07-14T09:33:27.197Z,25.95
2017-07-14T09:34:26.550Z,25.95
2017-07-14T09:35:26.898Z,26.19
2017-07-14T09:36:27.244Z,26.18
2017-07-14T09:37:26.950Z,26.29
2017-07-14T09:38:27.297Z,26.43
2017-07-14T09:39:26.998Z,26.51
2017-07-14T09:40:27.027Z,26.65
2017-07-14T09:41:26.729Z,26.77
2017-07-14T09:42:27.401Z,26.81
2017-07-14T09:43:27.427Z,26.92
2017-07-14T09:44:27.451Z,26.97
2017-07-14T09:45:27.475Z,27.07
2017-07-14T09:46:27.499Z,27.02
2017-07-14T09:47:27.205Z,27.11
2017-07-14T09:48:27.231Z,27.15
2017-07-14T09:49:27.589Z,27.15
2017-07-14T09:50:27.281Z,27.29
2017-07-14T09:51:27.310Z,27.17
2017-07-14T09:52:27.339Z,27.18
2017-07-14T09:53:27.687Z,27.21
2017-07-14T09:54:27.389Z,27.17
2017-07-14T09:55:27.747Z,27.2
2017-07-14T09:56:27.872Z,27.21
2017-07-14T09:57:27.472Z,27.2
2017-07-14T09:58:27.542Z,27.26
2017-07-14T09:59:27.523Z,27.21
2017-07-14T10:00:27.871Z,27.25
2017-07-14T10:01:27.580Z,27.25
2017-07-14T10:02:27.922Z,27.26
2017-07-14T10:03:27.961Z,27.33
2017-07-14T10:04:27.339Z,27.29
2017-07-14T10:05:28.018Z,27.39
2017-07-14T10:06:27.708Z,27.42
2017-07-14T10:07:28.145Z,27.42
2017-07-14T10:08:27.784Z,27.48
2017-07-14T10:09:27.816Z,27.49
2017-07-14T10:10:27.812Z,27.63
2017-07-14T10:11:28.162Z,27.55
2017-07-14T10:12:28.191Z,27.68
2017-07-14T10:13:28.218Z,27.7
2017-07-14T10:14:27.922Z,27.71
2017-07-14T10:15:27.954Z,27.71
2017-07-14T10:16:28.306Z,27.78
2017-07-14T10:17:28.322Z,27.89
2017-07-14T10:18:28.029Z,27.83
2017-07-14T10:19:28.395Z,27.82
2017-07-14T10:20:28.087Z,27.8
2017-07-14T10:21:28.449Z,27.83
2017-07-14T10:22:28.460Z,27.83
2017-07-14T10:23:28.487Z,27.77
2017-07-14T10:24:28.195Z,27.77
2017-07-14T10:25:28.542Z,27.68
2017-07-14T10:26:28.567Z,27.78
2017-07-14T10:27:27.950Z,27.67
2017-07-14T10:28:28.619Z,27.73
2017-07-14T10:29:28.449Z,27.71
2017-07-14T10:30:28.369Z,27.59
2017-07-14T10:31:28.059Z,27.58
2017-07-14T10:32:28.740Z,27.63
2017-07-14T10:33:28.757Z,27.55
2017-07-14T10:34:28.790Z,27.6
2017-07-14T10:35:28.168Z,27.59
2017-07-14T10:36:28.526Z,27.63
2017-07-14T10:37:28.547Z,27.67
2017-07-14T10:38:28.318Z,27.7
2017-07-14T10:39:29.024Z,27.77
2017-07-14T10:40:28.627Z,27.86
2017-07-14T10:41:28.979Z,27.96
2017-07-14T10:42:28.688Z,27.98
2017-07-14T10:43:28.460Z,28.15
2017-07-14T10:44:28.736Z,28.26
2017-07-14T10:45:29.168Z,28.37
2017-07-14T10:46:29.116Z,28.41
2017-07-14T10:47:28.942Z,28.44
2017-07-14T10:48:29.260Z,28.56
2017-07-14T10:49:28.878Z,28.69
2017-07-14T10:50:28.901Z,28.62
2017-07-14T10:51:29.256Z,28.7
2017-07-14T10:52:29.280Z,28.72
2017-07-14T10:53:28.732Z,28.85
2017-07-14T10:54:29.037Z,28.81
2017-07-14T10:55:29.359Z,28.81
2017-07-14T10:56:29.150Z,28.81
2017-07-14T10:57:29.423Z,28.78
2017-07-14T10:58:29.127Z,28.86
2017-07-14T10:59:29.153Z,28.96
2017-07-14T11:00:29.187Z,28.89
2017-07-14T11:01:29.536Z,29.02
2017-07-14T11:02:29.564Z,28.98
2017-07-14T11:03:29.269Z,29.12
2017-07-14T11:04:29.406Z,29.12
2017-07-14T11:05:29.323Z,29.16
2017-07-14T11:06:29.781Z,29.19
2017-07-14T11:07:29.157Z,29.29
2017-07-14T11:08:29.407Z,29.29
2017-07-14T11:09:29.441Z,29.42
2017-07-14T11:10:29.469Z,29.42
2017-07-14T11:11:29.812Z,29.5
2017-07-14T11:12:29.248Z,29.54
2017-07-14T11:13:29.287Z,29.71
2017-07-14T11:14:29.255Z,29.71
2017-07-14T11:15:29.928Z,29.81
2017-07-14T11:16:29.642Z,29.87
2017-07-14T11:17:29.341Z,29.95
2017-07-14T11:18:30.023Z,30.08
2017-07-14T11:19:29.721Z,30.09
2017-07-14T11:20:29.753Z,30.18
2017-07-14T11:21:29.777Z,30.32
2017-07-14T11:22:29.922Z,30.37
2017-07-14T11:23:29.836Z,30.44
2017-07-14T11:24:30.189Z,30.47
2017-07-14T11:25:30.309Z,30.68
2017-07-14T11:26:30.376Z,30.81
2017-07-14T11:27:29.630Z,30.88
2017-07-14T11:28:30.050Z,30.96
2017-07-14T11:29:30.334Z,31.03
2017-07-14T11:30:30.043Z,31.05
2017-07-14T11:31:30.077Z,31.09
2017-07-14T11:32:29.775Z,31.15
2017-07-14T11:33:30.131Z,31.1
2017-07-14T11:34:30.389Z,31.14
2017-07-14T11:35:30.509Z,31.21
2017-07-14T11:36:30.547Z,31.25
2017-07-14T11:37:30.566Z,31.31
2017-07-14T11:38:30.276Z,31.29
2017-07-14T11:39:30.629Z,31.36
2017-07-14T11:40:30.658Z,31.28
2017-07-14T11:41:30.367Z,31.43
2017-07-14T11:42:30.719Z,31.4
2017-07-14T11:43:30.747Z,31.31
2017-07-14T11:44:30.223Z,31.31
2017-07-14T11:45:30.488Z,31.24
2017-07-14T11:46:30.192Z,31.22
2017-07-14T11:47:30.547Z,31.18
2017-07-14T11:48:30.251Z,31.06
2017-07-14T11:49:30.930Z,31.03
2017-07-14T11:50:30.674Z,31.02
2017-07-14T11:51:30.668Z,30.96
2017-07-14T11:52:31.017Z,30.87
2017-07-14T11:53:31.143Z,30.85
2017-07-14T11:54:30.753Z,30.85
2017-07-14T11:55:31.151Z,30.78
2017-07-14T11:56:30.827Z,30.65
2017-07-14T11:57:30.962Z,30.65
2017-07-14T11:58:30.550Z,30.55
2017-07-14T11:59:30.987Z,30.57
2017-07-14T12:00:31.296Z,30.51
2017-07-14T12:01:31.294Z,30.5
2017-07-14T12:02:31.316Z,30.5
2017-07-14T12:03:30.700Z,30.39
2017-07-14T12:04:30.733Z,30.4
2017-07-14T12:05:31.414Z,30.25
2017-07-14T12:06:31.436Z,30.28
2017-07-14T12:07:30.821Z,30.27
2017-07-14T12:08:31.172Z,30.27
2017-07-14T12:09:31.204Z,30.16
2017-07-14T12:10:30.909Z,30.16
2017-07-14T12:11:31.585Z,30.18
2017-07-14T12:12:31.292Z,30.16
2017-07-14T12:13:31.647Z,30.15
2017-07-14T12:14:31.354Z,30.24
2017-07-14T12:15:31.385Z,30.13
2017-07-14T12:16:31.089Z,30.31
2017-07-14T12:17:31.443Z,30.32
2017-07-14T12:18:31.466Z,30.19
2017-07-14T12:19:31.178Z,30.15
2017-07-14T12:20:31.924Z,30.21
2017-07-14T12:21:31.561Z,30.24
2017-07-14T12:22:31.907Z,30.13
2017-07-14T12:23:31.297Z,30.03
2017-07-14T12:24:31.771Z,30.1
2017-07-14T12:25:31.680Z,30.03
2017-07-14T12:26:32.081Z,30.02
2017-07-14T12:27:31.744Z,29.93
2017-07-14T12:28:32.200Z,29.95
2017-07-14T12:29:31.805Z,29.9
2017-07-14T12:30:32.165Z,29.82
2017-07-14T12:31:32.304Z,29.84
2017-07-14T12:32:32.213Z,29.79
2017-07-14T12:33:32.362Z,29.66
2017-07-14T12:34:32.068Z,29.66
2017-07-14T12:35:32.297Z,29.66
2017-07-14T12:36:32.042Z,29.69
2017-07-14T12:37:32.363Z,29.56
2017-07-14T12:38:32.389Z,29.6
2017-07-14T12:39:32.101Z,29.51
2017-07-14T12:40:32.128Z,29.54
2017-07-14T12:41:32.480Z,29.56
2017-07-14T12:42:32.187Z,29.5
2017-07-14T12:43:32.542Z,29.45
2017-07-14T12:44:32.568Z,29.44
2017-07-14T12:45:32.012Z,29.39
2017-07-14T12:46:32.633Z,29.32
2017-07-14T12:47:32.334Z,29.35
2017-07-14T12:48:32.366Z,29.35
2017-07-14T12:49:32.505Z,29.27
2017-07-14T12:50:32.101Z,29.29
2017-07-14T12:51:32.775Z,29.24
2017-07-14T12:52:32.922Z,29.34
2017-07-14T12:53:32.430Z,29.23
2017-07-14T12:54:32.545Z,29.27
2017-07-14T12:55:32.250Z,29.29